createdAt,value
2023-05-13T00:01:23.870Z,99.90
2023-05-13T00:03:50.694Z,99.90
2023-05-13T00:06:17.540Z,99.90
2023-05-13T00:08:44.335Z,99.90
2023-05-13T00:11:11.081Z,99.90
2023-05-13T00:13:37.725Z,99.90
2023-05-13T00:16:04.624Z,99.90
2023-05-13T00:18:31.415Z,99.90
2023-05-13T00:20:58.153Z,99.90
2023-05-13T00:23:24.889Z,99.90
2023-05-13T00:25:51.581Z,99.90
2023-05-13T00:28:18.466Z,99.90
2023-05-13T00:30:45.893Z,99.90
2023-05-13T00:33:13.078Z,99.90
2023-05-13T00:35:39.761Z,99.90
2023-05-13T00:38:07.875Z,99.90
2023-05-13T00:40:39.421Z,99.90
2023-05-13T00:43:06.590Z,99.90
2023-05-13T00:45:33.359Z,99.90
2023-05-13T00:48:00.925Z,99.90
2023-05-13T00:50:27.757Z,99.90
2023-05-13T00:52:57.176Z,99.90
2023-05-13T00:55:24.010Z,99.90
2023-05-13T00:57:50.812Z,99.90
2023-05-13T01:00:17.880Z,99.90
2023-05-13T01:02:53.468Z,99.90
2023-05-13T01:05:45.306Z,99.90
2023-05-13T01:08:29.237Z,99.90
2023-05-13T01:11:11.728Z,99.90
2023-05-13T01:13:43.223Z,99.90
2023-05-13T01:16:24.601Z,99.90
2023-05-13T01:18:58.935Z,99.90
2023-05-13T01:21:26.837Z,99.90
2023-05-13T01:23:53.686Z,99.90
2023-05-13T01:26:21.453Z,99.90
2023-05-13T01:28:48.364Z,99.90
2023-05-13T01:31:15.398Z,99.90
2023-05-13T01:33:43.689Z,99.90
2023-05-13T01:36:11.329Z,99.90
2023-05-13T01:38:40.679Z,99.90
2023-05-13T01:41:07.421Z,99.90
2023-05-13T01:43:35.555Z,99.90
2023-05-13T01:46:02.477Z,99.90
2023-05-13T01:48:29.212Z,99.90
2023-05-13T01:50:57.137Z,99.90
2023-05-13T01:53:23.813Z,99.90
2023-05-13T01:55:52.764Z,99.90
2023-05-13T01:58:20.921Z,99.90
2023-05-13T02:00:47.691Z,99.90
2023-05-13T02:03:14.397Z,99.90
2023-05-13T02:05:42.047Z,99.90
2023-05-13T02:08:09.016Z,99.90
2023-05-13T02:10:37.956Z,99.90
2023-05-13T02:13:04.624Z,99.90
2023-05-13T02:15:31.614Z,99.90
2023-05-13T02:17:58.743Z,99.90
2023-05-13T02:20:26.341Z,99.90
2023-05-13T02:22:53.100Z,99.90
2023-05-13T02:25:19.879Z,99.90
2023-05-13T02:27:46.549Z,99.90
2023-05-13T02:30:13.519Z,99.90
2023-05-13T02:32:42.712Z,99.90
2023-05-13T02:35:10.803Z,99.90
2023-05-13T02:37:37.650Z,99.90
2023-05-13T02:40:05.206Z,99.90
2023-05-13T02:42:32.066Z,99.90
2023-05-13T02:44:58.782Z,99.90
2023-05-13T02:47:26.728Z,99.90
2023-05-13T02:49:57.708Z,99.90
2023-05-13T02:52:24.385Z,99.90
2023-05-13T02:54:51.104Z,99.90
2023-05-13T02:57:17.860Z,99.90
2023-05-13T02:59:45.308Z,99.90
2023-05-13T03:02:12.088Z,99.90
2023-05-13T03:04:41.126Z,99.90
2023-05-13T03:07:07.936Z,99.90
2023-05-13T03:09:35.105Z,99.90
2023-05-13T03:12:01.908Z,99.90
2023-05-13T03:14:28.591Z,99.90
2023-05-13T03:16:55.286Z,99.90
2023-05-13T03:19:21.994Z,99.90
2023-05-13T03:21:48.911Z,99.90
2023-05-13T03:24:16.689Z,99.90
2023-05-13T03:26:43.556Z,99.90
2023-05-13T03:29:10.315Z,99.90
2023-05-13T03:31:38.020Z,99.90
2023-05-13T03:34:05.613Z,99.90
2023-05-13T03:36:33.548Z,99.90
2023-05-13T03:39:00.693Z,99.90
2023-05-13T03:41:28.192Z,99.90
2023-05-13T03:43:57.516Z,99.90
2023-05-13T03:46:27.179Z,99.90
2023-05-13T03:48:55.695Z,99.90
2023-05-13T03:51:22.760Z,99.90
2023-05-13T03:53:50.269Z,99.90
2023-05-13T03:56:16.957Z,99.90
2023-05-13T03:58:45.340Z,99.90
2023-05-13T04:01:12.046Z,99.90
2023-05-13T04:03:38.687Z,99.90
2023-05-13T04:06:06.036Z,99.90
2023-05-13T04:08:32.719Z,99.90
2023-05-13T04:10:59.359Z,99.90
2023-05-13T04:13:26.204Z,99.90
2023-05-13T04:15:54.448Z,99.90
2023-05-13T04:18:21.762Z,99.90
2023-05-13T04:20:48.496Z,99.90
2023-05-13T04:23:15.177Z,99.90
2023-05-13T04:25:42.464Z,99.90
2023-05-13T04:28:09.372Z,99.90
2023-05-13T04:30:42.971Z,99.90
2023-05-13T04:33:09.871Z,99.90
2023-05-13T04:35:37.948Z,99.90
2023-05-13T04:38:05.254Z,99.90
2023-05-13T04:40:32.220Z,99.90
2023-05-13T04:43:04.564Z,99.90
2023-05-13T04:45:35.754Z,99.90
2023-05-13T04:48:03.169Z,99.90
2023-05-13T04:50:30.050Z,99.90
2023-05-13T04:52:57.493Z,99.90
2023-05-13T04:55:25.976Z,99.90
2023-05-13T04:57:54.416Z,99.90
2023-05-13T05:00:21.314Z,99.90
2023-05-13T05:02:49.829Z,99.90
2023-05-13T05:05:18.218Z,99.90
2023-05-13T05:07:45.779Z,99.90
2023-05-13T05:10:13.174Z,99.90
2023-05-13T05:12:43.796Z,99.90
2023-05-13T05:15:15.627Z,99.90
2023-05-13T05:17:45.260Z,99.90
2023-05-13T05:20:13.285Z,99.90
2023-05-13T05:22:41.776Z,99.90
2023-05-13T05:25:10.674Z,99.90
2023-05-13T05:27:37.438Z,99.90
2023-05-13T05:30:04.805Z,99.90
2023-05-13T05:32:33.930Z,99.90
2023-05-13T05:35:03.843Z,99.90
2023-05-13T05:37:31.870Z,99.90
2023-05-13T05:39:58.595Z,99.90
2023-05-13T05:42:25.996Z,99.90
2023-05-13T05:44:52.704Z,99.90
2023-05-13T05:47:19.430Z,99.90
2023-05-13T05:49:46.321Z,99.90
2023-05-13T05:52:13.335Z,99.90
2023-05-13T05:54:40.072Z,99.90
2023-05-13T05:57:06.754Z,99.90
2023-05-13T05:59:33.446Z,99.90
2023-05-13T06:02:00.341Z,99.90
2023-05-13T06:04:27.458Z,99.90
2023-05-13T06:06:54.234Z,99.90
2023-05-13T06:09:21.731Z,99.90
2023-05-13T06:11:49.114Z,99.90
2023-05-13T06:14:17.256Z,99.90
2023-05-13T06:16:43.919Z,99.90
2023-05-13T06:19:11.193Z,99.90
2023-05-13T06:21:37.964Z,99.90
2023-05-13T06:24:04.811Z,99.90
2023-05-13T06:26:32.249Z,99.90
2023-05-13T06:28:58.986Z,99.90
2023-05-13T06:31:27.604Z,99.90
2023-05-13T06:33:54.324Z,99.90
2023-05-13T06:36:21.118Z,99.90
2023-05-13T06:38:47.913Z,99.90
2023-05-13T06:41:15.299Z,99.90
2023-05-13T06:43:42.131Z,99.90
2023-05-13T06:46:19.778Z,99.90
2023-05-13T06:48:46.551Z,99.90
2023-05-13T06:51:13.185Z,99.90
2023-05-13T06:53:39.890Z,99.90
2023-05-13T06:56:06.976Z,99.90
2023-05-13T06:58:33.716Z,99.90
2023-05-13T07:01:00.427Z,99.90
2023-05-13T07:03:27.127Z,99.90
2023-05-13T07:05:53.973Z,99.90
2023-05-13T07:08:20.685Z,99.90
2023-05-13T07:10:47.293Z,99.90
2023-05-13T07:13:14.113Z,99.90
2023-05-13T07:15:41.029Z,99.90
2023-05-13T07:18:07.785Z,99.90
2023-05-13T07:20:34.538Z,99.90
2023-05-13T07:23:02.217Z,99.90
2023-05-13T07:25:28.887Z,99.90
2023-05-13T07:27:55.770Z,99.90
2023-05-13T07:30:22.901Z,99.90
2023-05-13T07:32:50.566Z,99.90
2023-05-13T07:35:18.714Z,99.90
2023-05-13T07:37:45.508Z,99.90
2023-05-13T07:40:13.694Z,99.90
2023-05-13T07:42:40.521Z,99.90
2023-05-13T07:45:10.780Z,99.90
2023-05-13T07:47:37.531Z,99.90
2023-05-13T07:50:04.610Z,99.90
2023-05-13T07:52:32.155Z,99.90
2023-05-13T07:54:58.819Z,99.90
2023-05-13T07:57:25.721Z,99.90
2023-05-13T07:59:53.737Z,99.90
2023-05-13T08:02:20.495Z,99.90
2023-05-13T08:04:47.275Z,99.90
2023-05-13T08:07:14.029Z,99.90
2023-05-13T08:09:40.766Z,99.90
2023-05-13T08:12:07.809Z,99.90
2023-05-13T08:14:34.630Z,99.90
2023-05-13T08:17:01.283Z,99.90
2023-05-13T08:19:28.038Z,99.90
2023-05-13T08:21:54.706Z,99.90
2023-05-13T08:24:22.398Z,99.90
2023-05-13T08:26:49.078Z,99.90
2023-05-13T08:29:15.824Z,99.90
2023-05-13T08:31:42.614Z,99.90
2023-05-13T08:34:09.420Z,99.90
2023-05-13T08:36:36.429Z,99.90
2023-05-13T08:39:03.226Z,99.90
2023-05-13T08:41:33.255Z,99.90
2023-05-13T08:44:02.749Z,99.90
2023-05-13T08:46:32.882Z,99.90
2023-05-13T08:49:00.086Z,99.90
2023-05-13T08:51:26.916Z,99.90
2023-05-13T08:53:54.895Z,99.90
2023-05-13T08:56:28.197Z,99.90
2023-05-13T08:58:55.128Z,99.90
2023-05-13T09:01:22.680Z,99.90
2023-05-13T09:04:01.213Z,99.90
2023-05-13T09:06:28.597Z,99.90
2023-05-13T09:08:56.045Z,99.90
2023-05-13T09:11:23.262Z,99.90
2023-05-13T09:13:58.145Z,99.90
2023-05-13T09:16:25.887Z,99.90
2023-05-13T09:19:00.352Z,99.90
2023-05-13T09:21:30.628Z,99.90
2023-05-13T09:24:18.183Z,99.90
2023-05-13T09:26:46.274Z,99.90
2023-05-13T09:29:21.229Z,99.90
2023-05-13T09:31:54.209Z,99.90
2023-05-13T09:34:34.853Z,99.90
2023-05-13T09:37:06.438Z,99.90
2023-05-13T09:39:38.823Z,99.90
2023-05-13T09:42:06.220Z,99.90
2023-05-13T09:44:33.993Z,99.90
2023-05-13T09:47:02.467Z,99.90
2023-05-13T09:49:31.594Z,99.90
2023-05-13T09:51:58.343Z,99.90
2023-05-13T09:54:25.751Z,99.90
2023-05-13T09:56:59.321Z,99.90
2023-05-13T09:59:26.560Z,99.90
2023-05-13T10:01:55.623Z,99.90
2023-05-13T10:04:23.331Z,99.90
2023-05-13T10:06:50.534Z,99.90
2023-05-13T10:09:17.808Z,99.90
2023-05-13T10:11:48.191Z,99.90
2023-05-13T10:14:15.554Z,99.00
2023-05-13T10:16:43.151Z,99.90
2023-05-13T10:19:10.558Z,99.90
2023-05-13T10:21:38.366Z,99.90
2023-05-13T10:24:06.819Z,98.70
2023-05-13T10:26:34.516Z,98.60
2023-05-13T10:29:03.447Z,99.40
2023-05-13T10:31:30.907Z,98.70
2023-05-13T10:33:58.857Z,99.20
2023-05-13T10:37:03.637Z,99.90
2023-05-13T10:40:08.574Z,99.90
2023-05-13T10:42:43.531Z,98.80
2023-05-13T10:45:11.045Z,99.40
2023-05-13T10:47:38.535Z,99.90
2023-05-13T10:50:07.328Z,99.70
2023-05-13T10:53:07.188Z,99.30
2023-05-13T10:55:40.676Z,99.20
2023-05-13T10:58:12.823Z,99.60
2023-05-13T11:00:41.849Z,99.20
2023-05-13T11:03:13.452Z,99.50
2023-05-13T11:05:43.931Z,99.60
2023-05-13T11:08:11.728Z,99.50
2023-05-13T11:10:40.588Z,99.10
2023-05-13T11:13:07.500Z,99.00
2023-05-13T11:15:55.500Z,99.40
2023-05-13T11:18:30.899Z,98.60
2023-05-13T11:21:05.237Z,99.20
2023-05-13T11:23:37.410Z,98.40
2023-05-13T11:26:12.713Z,98.70
2023-05-13T11:28:59.934Z,99.00
2023-05-13T11:31:28.499Z,98.60
2023-05-13T11:34:09.616Z,98.40
2023-05-13T11:36:41.165Z,98.60
2023-05-13T11:39:13.805Z,98.80
2023-05-13T11:41:48.810Z,98.60
2023-05-13T11:44:18.668Z,98.50
2023-05-13T11:46:56.097Z,98.20
2023-05-13T11:49:36.339Z,98.40
2023-05-13T11:52:07.165Z,97.50
2023-05-13T11:54:50.575Z,98.30
2023-05-13T11:57:20.708Z,97.90
2023-05-13T12:00:00.692Z,97.80
2023-05-13T12:02:34.811Z,96.20
2023-05-13T12:05:07.146Z,96.60
2023-05-13T12:07:35.184Z,97.10
2023-05-13T12:10:04.165Z,97.50
2023-05-13T12:12:32.906Z,96.00
2023-05-13T12:15:01.849Z,95.00
2023-05-13T12:17:29.059Z,95.30
2023-05-13T12:20:11.668Z,95.50
2023-05-13T12:22:52.336Z,95.80
2023-05-13T12:25:39.084Z,95.40
2023-05-13T12:28:16.226Z,95.90
2023-05-13T12:30:49.209Z,95.40
2023-05-13T12:33:17.626Z,95.30
2023-05-13T12:35:46.609Z,95.50
2023-05-13T12:38:18.632Z,95.60
2023-05-13T12:40:46.652Z,94.80
2023-05-13T12:43:14.316Z,94.30
2023-05-13T12:45:44.864Z,93.40
2023-05-13T12:48:12.437Z,93.80
2023-05-13T12:50:39.196Z,94.20
2023-05-13T12:53:06.126Z,93.10
2023-05-13T12:55:32.994Z,92.10
2023-05-13T12:58:01.444Z,92.10
2023-05-13T13:00:28.470Z,91.20
2023-05-13T13:02:56.313Z,92.40
2023-05-13T13:05:24.082Z,93.30
2023-05-13T13:07:51.778Z,94.00
2023-05-13T13:10:18.895Z,94.20
2023-05-13T13:12:45.721Z,94.60
2023-05-13T13:15:12.763Z,94.30
2023-05-13T13:17:39.530Z,94.10
2023-05-13T13:20:07.423Z,94.70
2023-05-13T13:22:37.020Z,94.10
2023-05-13T13:25:05.999Z,94.70
2023-05-13T13:27:34.605Z,95.50
2023-05-13T13:30:01.421Z,95.40
2023-05-13T13:32:28.163Z,95.20
2023-05-13T13:34:55.138Z,95.30
2023-05-13T13:37:22.055Z,94.80
2023-05-13T13:39:48.820Z,95.20
2023-05-13T13:42:15.523Z,95.00
2023-05-13T13:44:42.293Z,94.90
2023-05-13T13:47:09.889Z,94.90
2023-05-13T13:49:36.800Z,94.00
2023-05-13T13:52:03.773Z,94.40
2023-05-13T13:54:30.550Z,94.70
2023-05-13T13:56:57.269Z,94.70
2023-05-13T13:59:23.950Z,94.80
2023-05-13T14:01:50.680Z,95.20
2023-05-13T14:04:23.675Z,95.00
2023-05-13T14:06:51.193Z,94.30
2023-05-13T14:09:18.434Z,92.80
2023-05-13T14:11:45.260Z,93.20
2023-05-13T14:14:12.064Z,93.20
2023-05-13T14:16:38.928Z,92.60
2023-05-13T14:19:05.715Z,92.70
2023-05-13T14:21:32.771Z,92.60
2023-05-13T14:23:59.400Z,92.80
2023-05-13T14:26:26.128Z,93.10
2023-05-13T14:28:53.907Z,93.40
2023-05-13T14:31:20.867Z,94.00
2023-05-13T14:33:47.913Z,97.20
2023-05-13T14:36:16.113Z,99.40
2023-05-13T14:38:44.251Z,99.90
2023-05-13T14:41:11.051Z,99.90
2023-05-13T14:43:37.658Z,99.90
2023-05-13T14:46:04.846Z,99.90
2023-05-13T14:48:31.581Z,99.90
2023-05-13T14:50:58.399Z,99.90
2023-05-13T14:53:25.072Z,99.90
2023-05-13T14:55:51.920Z,99.90
2023-05-13T14:58:18.871Z,99.90
2023-05-13T15:00:45.551Z,99.90
2023-05-13T15:03:12.405Z,99.90
2023-05-13T15:05:39.569Z,99.90
2023-05-13T15:08:07.480Z,99.90
2023-05-13T15:10:34.231Z,99.90
2023-05-13T15:13:00.909Z,99.90
2023-05-13T15:15:27.602Z,98.90
2023-05-13T15:17:54.318Z,97.40
2023-05-13T15:20:21.193Z,98.00
2023-05-13T15:22:47.929Z,98.70
2023-05-13T15:25:14.588Z,98.90
2023-05-13T15:27:42.853Z,98.40
2023-05-13T15:30:09.958Z,96.80
2023-05-13T15:32:36.648Z,97.50
2023-05-13T15:35:03.592Z,97.00
2023-05-13T15:37:30.254Z,97.00
2023-05-13T15:39:56.896Z,97.90
2023-05-13T15:42:23.566Z,98.00
2023-05-13T15:44:50.213Z,97.30
2023-05-13T15:47:16.928Z,97.20
2023-05-13T15:49:43.613Z,97.30
2023-05-13T15:52:10.331Z,96.70
2023-05-13T15:54:37.117Z,96.90
2023-05-13T15:57:04.034Z,96.60
2023-05-13T15:59:30.689Z,96.80
2023-05-13T16:01:57.637Z,97.10
2023-05-13T16:04:24.386Z,97.30
2023-05-13T16:06:51.084Z,97.80
2023-05-13T16:09:17.751Z,98.10
2023-05-13T16:11:44.415Z,98.60
2023-05-13T16:14:11.134Z,98.10
2023-05-13T16:16:38.104Z,98.50
2023-05-13T16:19:04.913Z,98.60
2023-05-13T16:21:31.919Z,98.90
2023-05-13T16:23:58.865Z,99.20
2023-05-13T16:26:26.232Z,99.30
2023-05-13T16:28:52.922Z,99.50
2023-05-13T16:31:19.658Z,98.30
2023-05-13T16:33:46.383Z,98.70
2023-05-13T16:36:13.091Z,99.20
2023-05-13T16:38:41.343Z,99.60
2023-05-13T16:41:08.449Z,99.90
2023-05-13T16:43:35.212Z,99.90
2023-05-13T16:46:02.855Z,99.20
2023-05-13T16:48:29.577Z,99.40
2023-05-13T16:50:56.379Z,99.80
2023-05-13T16:53:23.281Z,99.90
2023-05-13T16:55:50.315Z,99.90
2023-05-13T16:58:17.167Z,99.90
2023-05-13T17:00:44.237Z,99.90
2023-05-13T17:03:13.306Z,99.90
2023-05-13T17:05:40.404Z,99.90
2023-05-13T17:08:07.082Z,99.90
2023-05-13T17:10:33.748Z,99.90
2023-05-13T17:13:00.917Z,99.90
2023-05-13T17:15:27.613Z,99.90
2023-05-13T17:17:54.309Z,99.90
2023-05-13T17:20:21.481Z,99.90
2023-05-13T17:22:48.840Z,99.70
2023-05-13T17:25:15.601Z,98.70
2023-05-13T17:27:42.249Z,97.10
2023-05-13T17:30:09.384Z,96.40
2023-05-13T17:32:36.126Z,96.70
2023-05-13T17:35:04.293Z,97.20
2023-05-13T17:37:30.941Z,97.50
2023-05-13T17:40:00.566Z,97.70
2023-05-13T17:42:28.887Z,97.90
2023-05-13T17:44:55.840Z,98.20
2023-05-13T17:47:22.765Z,98.30
2023-05-13T17:49:49.673Z,98.30
2023-05-13T17:52:16.347Z,98.60
2023-05-13T17:54:42.990Z,98.90
2023-05-13T17:57:11.040Z,99.40
2023-05-13T17:59:37.907Z,99.00
2023-05-13T18:02:04.816Z,99.40
2023-05-13T18:04:31.628Z,98.70
2023-05-13T18:06:58.320Z,99.40
2023-05-13T18:09:25.219Z,99.40
2023-05-13T18:11:52.013Z,99.90
2023-05-13T18:14:18.782Z,99.90
2023-05-13T18:16:45.924Z,99.90
2023-05-13T18:19:12.666Z,99.90
2023-05-13T18:21:39.387Z,99.90
2023-05-13T18:24:06.619Z,99.90
2023-05-13T18:26:33.393Z,99.90
2023-05-13T18:29:00.051Z,99.90
2023-05-13T18:31:26.824Z,99.90
2023-05-13T18:33:53.489Z,99.90
2023-05-13T18:36:20.430Z,99.90
2023-05-13T18:38:47.920Z,99.90
2023-05-13T18:41:15.038Z,99.90
2023-05-13T18:43:41.788Z,99.90
2023-05-13T18:46:09.422Z,99.90
2023-05-13T18:48:36.348Z,99.90
2023-05-13T18:51:03.053Z,99.90
2023-05-13T18:53:29.749Z,99.90
2023-05-13T18:55:56.656Z,99.90
2023-05-13T18:58:23.293Z,99.90
2023-05-13T19:00:50.105Z,99.90
2023-05-13T19:03:16.988Z,99.90
2023-05-13T19:05:44.830Z,99.90
2023-05-13T19:08:11.549Z,99.90
2023-05-13T19:10:40.176Z,99.90
2023-05-13T19:13:07.499Z,99.90
2023-05-13T19:15:34.242Z,99.90
2023-05-13T19:18:01.245Z,99.90
2023-05-13T19:20:28.732Z,99.90
2023-05-13T19:22:55.423Z,99.90
2023-05-13T19:25:22.135Z,99.90
2023-05-13T19:27:49.387Z,99.90
2023-05-13T19:30:16.161Z,99.90
2023-05-13T19:32:43.564Z,99.90
2023-05-13T19:35:11.157Z,99.90
2023-05-13T19:37:37.968Z,99.90
2023-05-13T19:40:05.296Z,99.90
2023-05-13T19:42:32.122Z,99.90
2023-05-13T19:44:58.752Z,99.90
2023-05-13T19:47:26.866Z,99.90
2023-05-13T19:49:53.825Z,99.90
2023-05-13T19:52:20.843Z,99.90
2023-05-13T19:54:47.545Z,99.90
2023-05-13T19:57:14.255Z,99.90
2023-05-13T19:59:41.742Z,99.90
2023-05-13T20:02:09.100Z,99.90
2023-05-13T20:04:36.251Z,99.90
2023-05-13T20:07:02.979Z,99.90
2023-05-13T20:09:30.463Z,99.90
2023-05-13T20:12:00.400Z,99.90
2023-05-13T20:14:45.154Z,99.90
2023-05-13T20:17:19.413Z,99.90
2023-05-13T20:19:49.903Z,99.90
2023-05-13T20:22:17.900Z,99.90
2023-05-13T20:24:48.747Z,99.90
2023-05-13T20:27:16.590Z,99.90
2023-05-13T20:29:45.530Z,99.90
2023-05-13T20:32:12.505Z,99.90
2023-05-13T20:34:39.449Z,99.90
2023-05-13T20:37:06.137Z,99.90
2023-05-13T20:39:32.838Z,99.90
2023-05-13T20:41:59.582Z,99.90
2023-05-13T20:44:26.612Z,99.90
2023-05-13T20:46:53.362Z,99.90
2023-05-13T20:49:20.059Z,99.90
2023-05-13T20:51:48.142Z,99.90
2023-05-13T20:54:15.781Z,99.90
2023-05-13T20:56:42.480Z,99.90
2023-05-13T20:59:09.387Z,99.90
2023-05-13T21:01:36.365Z,99.90
2023-05-13T21:04:05.804Z,99.90
2023-05-13T21:06:32.950Z,99.90
2023-05-13T21:08:59.693Z,99.90
2023-05-13T21:11:26.506Z,99.90
2023-05-13T21:13:53.184Z,99.90
2023-05-13T21:16:19.934Z,99.90
2023-05-13T21:18:46.685Z,99.90
2023-05-13T21:21:13.411Z,99.90
2023-05-13T21:23:40.682Z,99.90
2023-05-13T21:26:07.475Z,99.90
2023-05-13T21:28:34.260Z,99.90
2023-05-13T21:31:01.201Z,99.90
2023-05-13T21:33:28.390Z,99.90
2023-05-13T21:35:56.287Z,99.90
2023-05-13T21:38:23.150Z,99.90
2023-05-13T21:40:50.066Z,99.90
2023-05-13T21:43:16.812Z,99.90
2023-05-13T21:45:43.513Z,99.90
2023-05-13T21:48:10.261Z,99.90
2023-05-13T21:50:37.110Z,99.90
2023-05-13T21:53:04.902Z,99.90
2023-05-13T21:55:34.704Z,99.90
2023-05-13T21:58:02.753Z,99.90
2023-05-13T22:00:29.585Z,99.90
2023-05-13T22:03:01.268Z,99.90
2023-05-13T22:05:28.321Z,99.90
2023-05-13T22:07:55.136Z,99.90
2023-05-13T22:10:22.069Z,99.90
2023-05-13T22:12:48.810Z,99.90
2023-05-13T22:15:15.910Z,99.90
2023-05-13T22:17:42.702Z,99.90
2023-05-13T22:20:09.872Z,99.90
2023-05-13T22:22:36.575Z,99.90
2023-05-13T22:25:03.427Z,99.90
2023-05-13T22:27:30.104Z,99.90
2023-05-13T22:29:56.868Z,99.90
2023-05-13T22:32:23.669Z,99.90
2023-05-13T22:34:50.836Z,99.90
2023-05-13T22:37:17.506Z,99.90
2023-05-13T22:39:44.350Z,99.90
2023-05-13T22:42:11.041Z,99.90
2023-05-13T22:44:37.821Z,99.90
2023-05-13T22:47:04.665Z,99.90
2023-05-13T22:49:31.359Z,99.90
2023-05-13T22:51:58.040Z,99.90
2023-05-13T22:54:24.693Z,99.90
2023-05-13T22:56:51.460Z,99.90
2023-05-13T22:59:18.135Z,99.90
2023-05-13T23:01:44.840Z,99.90
2023-05-13T23:04:11.579Z,99.90
2023-05-13T23:06:38.282Z,99.90
2023-05-13T23:09:05.591Z,99.90
2023-05-13T23:11:32.228Z,99.90
2023-05-13T23:13:58.972Z,99.90
2023-05-13T23:16:25.636Z,99.90
2023-05-13T23:18:52.389Z,99.90
2023-05-13T23:21:19.090Z,99.90
2023-05-13T23:23:46.176Z,99.90
2023-05-13T23:26:13.017Z,99.90
2023-05-13T23:28:39.653Z,99.90
2023-05-13T23:31:06.343Z,99.90
2023-05-13T23:33:33.286Z,99.90
2023-05-13T23:35:59.951Z,99.90
2023-05-13T23:38:26.843Z,99.90
2023-05-13T23:40:53.614Z,99.90
2023-05-13T23:43:20.354Z,99.90
2023-05-13T23:45:47.044Z,99.90
2023-05-13T23:48:13.749Z,99.90
2023-05-13T23:50:41.622Z,99.90
2023-05-13T23:53:08.306Z,99.90
2023-05-13T23:55:35.679Z,99.90
2023-05-13T23:58:02.606Z,99.90
